DKH6837 ZSPD-ZUUU
Flight info
| Callsign | DKH6837 |
|---|---|
| Flight time | N/A |
| Altitude | 36100 |
| Route | PIKAS G330 UNTAN G345 OLRIS R343 MADUK W51 LEGIV W164 ADGOL W50 XSH W80 URGEG W231 EKOKA |
| Aircraft | A320/M-SDE3FGHIRWY/LB1 |
Departure
| Time | N/A |
|---|---|
| Airport | Shanghai Pudong International Airport (ZSPD) |
Arrival
| Time | 2026-05-01 07:53 |
|---|---|
| Airport | Chengdu Shuangliu International Airport (ZUUU) |
| Time | Latitude | Longitude | Altitude | Speed | Heading |
|---|---|---|---|---|---|
| 2026-05-01 07:23 | 30.49884 | 106.39106 | 35902 ft | 452 kts | 312° |
| 2026-05-01 07:24 | 30.56817 | 106.31716 | 35908 ft | 451 kts | 312° |
| 2026-05-01 07:24 | 30.60993 | 106.26446 | 35906 ft | 440 kts | 298° |
| 2026-05-01 07:25 | 30.64266 | 106.20479 | 35906 ft | 439 kts | 298° |
| 2026-05-01 07:25 | 30.67565 | 106.14488 | 35908 ft | 439 kts | 298° |
| 2026-05-01 07:26 | 30.70853 | 106.08513 | 35915 ft | 438 kts | 298° |
| 2026-05-01 07:26 | 30.73132 | 106.02095 | 35911 ft | 427 kts | 278° |
| 2026-05-01 07:27 | 30.73162 | 105.95270 | 35911 ft | 423 kts | 261° |
| 2026-05-01 07:27 | 30.72204 | 105.88555 | 35595 ft | 417 kts | 261° |
| 2026-05-01 07:27 | 30.71740 | 105.85252 | 35115 ft | 412 kts | 261° |
| 2026-05-01 07:28 | 30.71286 | 105.82014 | 34655 ft | 412 kts | 261° |
| 2026-05-01 07:28 | 30.70814 | 105.78673 | 34189 ft | 412 kts | 261° |
| 2026-05-01 07:28 | 30.70357 | 105.75447 | 33742 ft | 413 kts | 261° |
| 2026-05-01 07:28 | 30.69886 | 105.72137 | 33226 ft | 414 kts | 260° |
| 2026-05-01 07:29 | 30.69416 | 105.68837 | 32723 ft | 416 kts | 260° |
| 2026-05-01 07:29 | 30.68940 | 105.65513 | 32226 ft | 417 kts | 260° |
| 2026-05-01 07:29 | 30.68460 | 105.62179 | 31732 ft | 419 kts | 259° |
| 2026-05-01 07:29 | 30.67976 | 105.58831 | 29735 ft | 430 kts | 258° |
| 2026-05-01 07:30 | 30.67455 | 105.55271 | 28552 ft | 441 kts | 258° |
| 2026-05-01 07:30 | 30.66937 | 105.51773 | 27967 ft | 438 kts | 258° |
| 2026-05-01 07:30 | 30.66432 | 105.48282 | 27465 ft | 438 kts | 258° |
| 2026-05-01 07:30 | 30.65933 | 105.44780 | 26967 ft | 439 kts | 259° |
| 2026-05-01 07:31 | 30.65432 | 105.41276 | 26487 ft | 441 kts | 259° |
| 2026-05-01 07:31 | 30.63895 | 105.30645 | 25069 ft | 448 kts | 259° |
| 2026-05-01 07:32 | 30.62537 | 105.23586 | 24167 ft | 450 kts | 248° |
| 2026-05-01 07:32 | 30.61103 | 105.20342 | 23719 ft | 450 kts | 237° |
| 2026-05-01 07:33 | 30.57141 | 105.14758 | 22749 ft | 449 kts | 230° |
| 2026-05-01 07:33 | 30.55090 | 105.12011 | 22227 ft | 447 kts | 230° |
| 2026-05-01 07:33 | 30.51078 | 105.06628 | 21238 ft | 442 kts | 230° |
| 2026-05-01 07:34 | 30.49068 | 105.03937 | 20749 ft | 440 kts | 230° |
| 2026-05-01 07:34 | 30.45070 | 104.98603 | 19794 ft | 436 kts | 230° |
| 2026-05-01 07:34 | 30.43085 | 104.95964 | 19521 ft | 434 kts | 230° |
| 2026-05-01 07:35 | 30.41106 | 104.93326 | 19466 ft | 433 kts | 232° |
| 2026-05-01 07:35 | 30.39397 | 104.90477 | 19494 ft | 432 kts | 242° |
| 2026-05-01 07:35 | 30.38163 | 104.87295 | 19486 ft | 432 kts | 251° |
| 2026-05-01 07:35 | 30.37238 | 104.83983 | 19492 ft | 432 kts | 252° |
| 2026-05-01 07:36 | 30.36308 | 104.80678 | 19493 ft | 433 kts | 252° |
| 2026-05-01 07:36 | 30.35367 | 104.77359 | 19491 ft | 433 kts | 252° |
| 2026-05-01 07:36 | 30.34433 | 104.74068 | 19499 ft | 433 kts | 252° |
| 2026-05-01 07:36 | 30.33485 | 104.70732 | 19496 ft | 433 kts | 252° |
| 2026-05-01 07:37 | 30.31598 | 104.64109 | 19501 ft | 434 kts | 252° |
| 2026-05-01 07:37 | 30.30654 | 104.60799 | 19506 ft | 434 kts | 252° |
| 2026-05-01 07:37 | 30.29708 | 104.57484 | 19439 ft | 435 kts | 252° |
| 2026-05-01 07:38 | 30.28766 | 104.54179 | 18883 ft | 431 kts | 252° |
| 2026-05-01 07:38 | 30.27950 | 104.50854 | 18321 ft | 427 kts | 258° |
| 2026-05-01 07:38 | 30.27415 | 104.44064 | 17087 ft | 422 kts | 266° |
| 2026-05-01 07:39 | 30.27261 | 104.40688 | 16469 ft | 420 kts | 266° |
| 2026-05-01 07:39 | 30.27101 | 104.37320 | 15864 ft | 418 kts | 266° |
| 2026-05-01 07:39 | 30.26755 | 104.30644 | 14686 ft | 414 kts | 262° |
| 2026-05-01 07:40 | 30.26085 | 104.27484 | 14119 ft | 410 kts | 247° |
| 2026-05-01 07:40 | 30.24915 | 104.24426 | 13545 ft | 409 kts | 244° |
| 2026-05-01 07:40 | 30.23762 | 104.21501 | 12913 ft | 407 kts | 244° |
| 2026-05-01 07:40 | 30.22578 | 104.18529 | 12291 ft | 404 kts | 244° |
| 2026-05-01 07:41 | 30.21406 | 104.15605 | 11770 ft | 401 kts | 244° |
| 2026-05-01 07:41 | 30.20226 | 104.12669 | 11583 ft | 401 kts | 244° |
| 2026-05-01 07:41 | 30.17980 | 104.07064 | 11452 ft | 365 kts | 244° |
| 2026-05-01 07:42 | 30.16940 | 104.04462 | 11341 ft | 349 kts | 244° |
| 2026-05-01 07:42 | 30.15940 | 104.01966 | 11219 ft | 334 kts | 244° |
| 2026-05-01 07:42 | 30.14984 | 103.99580 | 11096 ft | 321 kts | 244° |
| 2026-05-01 07:42 | 30.14065 | 103.97285 | 10987 ft | 309 kts | 244° |
| 2026-05-01 07:43 | 30.13182 | 103.95083 | 10851 ft | 297 kts | 244° |
| 2026-05-01 07:43 | 30.12321 | 103.92937 | 10648 ft | 290 kts | 244° |
| 2026-05-01 07:43 | 30.10621 | 103.88712 | 9914 ft | 290 kts | 245° |
| 2026-05-01 07:44 | 30.10431 | 103.84233 | 9134 ft | 288 kts | 292° |
| 2026-05-01 07:44 | 30.11919 | 103.80055 | 8609 ft | 277 kts | 293° |
| 2026-05-01 07:45 | 30.12691 | 103.78057 | 8251 ft | 274 kts | 302° |
| 2026-05-01 07:45 | 30.14061 | 103.76617 | 7919 ft | 268 kts | 338° |
| 2026-05-01 07:45 | 30.15860 | 103.76341 | 7555 ft | 263 kts | 11° |
| 2026-05-01 07:45 | 30.17564 | 103.76958 | 7426 ft | 251 kts | 25° |
| 2026-05-01 07:46 | 30.18934 | 103.78098 | 7303 ft | 239 kts | 42° |
| 2026-05-01 07:46 | 30.20286 | 103.79124 | 7090 ft | 230 kts | 20° |
| 2026-05-01 07:46 | 30.23268 | 103.80379 | 6530 ft | 226 kts | 21° |
| 2026-05-01 07:47 | 30.24727 | 103.81048 | 6244 ft | 224 kts | 22° |
| 2026-05-01 07:47 | 30.26175 | 103.81718 | 5936 ft | 222 kts | 22° |
| 2026-05-01 07:47 | 30.27605 | 103.82379 | 5645 ft | 221 kts | 22° |
| 2026-05-01 07:47 | 30.29030 | 103.83038 | 5336 ft | 220 kts | 22° |
| 2026-05-01 07:48 | 30.31860 | 103.84348 | 4768 ft | 217 kts | 22° |
| 2026-05-01 07:48 | 30.33251 | 103.84992 | 4479 ft | 215 kts | 22° |
| 2026-05-01 07:48 | 30.34632 | 103.85631 | 4164 ft | 214 kts | 22° |
| 2026-05-01 07:49 | 30.36008 | 103.86268 | 3928 ft | 211 kts | 22° |
| 2026-05-01 07:49 | 30.38728 | 103.87529 | 3903 ft | 213 kts | 22° |
| 2026-05-01 07:49 | 30.40101 | 103.88165 | 3904 ft | 212 kts | 22° |
| 2026-05-01 07:50 | 30.41466 | 103.88798 | 3840 ft | 206 kts | 22° |
| 2026-05-01 07:50 | 30.44050 | 103.89997 | 3399 ft | 193 kts | 22° |
| 2026-05-01 07:50 | 30.45278 | 103.90567 | 3137 ft | 186 kts | 23° |
| 2026-05-01 07:51 | 30.46417 | 103.91095 | 2918 ft | 165 kts | 22° |
| 2026-05-01 07:51 | 30.47422 | 103.91562 | 2696 ft | 148 kts | 21° |
| 2026-05-01 07:51 | 30.48353 | 103.91994 | 2519 ft | 139 kts | 21° |
| 2026-05-01 07:52 | 30.50133 | 103.92821 | 2106 ft | 136 kts | 20° |
| 2026-05-01 07:52 | 30.51026 | 103.93237 | 1898 ft | 139 kts | 21° |
| 2026-05-01 07:52 | 30.51924 | 103.93657 | 1735 ft | 140 kts | 21° |
| 2026-05-01 07:53 | 30.53417 | 103.94349 | 1667 ft | 72 kts | 21° |
| 2026-05-01 07:53 | 30.53751 | 103.94506 | 1661 ft | 44 kts | 22° |
| 2026-05-01 07:53 | 30.54021 | 103.94620 | 1651 ft | 39 kts | 15° |
| 2026-05-01 07:53 | 30.54183 | 103.94616 | 1648 ft | 19 kts | 349° |
| 2026-05-01 07:54 | 30.54464 | 103.94614 | 1647 ft | 22 kts | 22° |